sensor_id;sensor_type;location;lat;lon;timestamp;temperature;humidity
75380;HTU21D;65641;44.714;37.756;2023-12-07T00:00:43;9.68;83.24
75380;HTU21D;65641;44.714;37.756;2023-12-07T00:01:46;9.67;83.26
75380;HTU21D;65641;44.714;37.756;2023-12-07T00:02:50;9.68;83.24
75380;HTU21D;65641;44.714;37.756;2023-12-07T00:03:53;9.68;83.29
75380;HTU21D;65641;44.714;37.756;2023-12-07T00:04:56;9.68;83.26
75380;HTU21D;65641;44.714;37.756;2023-12-07T00:05:59;9.68;83.27
75380;HTU21D;65641;44.714;37.756;2023-12-07T00:07:02;9.69;83.29
75380;HTU21D;65641;44.714;37.756;2023-12-07T00:08:06;9.69;83.26
75380;HTU21D;65641;44.714;37.756;2023-12-07T00:09:11;9.68;83.33
75380;HTU21D;65641;44.714;37.756;2023-12-07T00:10:15;9.68;83.29
75380;HTU21D;65641;44.714;37.756;2023-12-07T00:11:18;9.69;83.29
75380;HTU21D;65641;44.714;37.756;2023-12-07T00:12:21;9.69;83.32
75380;HTU21D;65641;44.714;37.756;2023-12-07T00:13:25;9.69;83.38
75380;HTU21D;65641;44.714;37.756;2023-12-07T00:14:28;9.70;83.36
75380;HTU21D;65641;44.714;37.756;2023-12-07T00:15:31;9.69;83.36
75380;HTU21D;65641;44.714;37.756;2023-12-07T00:16:35;9.69;83.36
75380;HTU21D;65641;44.714;37.756;2023-12-07T00:17:38;9.70;83.45
75380;HTU21D;65641;44.714;37.756;2023-12-07T00:18:41;9.70;83.49
75380;HTU21D;65641;44.714;37.756;2023-12-07T00:19:44;9.71;83.42
75380;HTU21D;65641;44.714;37.756;2023-12-07T00:20:47;9.72;83.49
75380;HTU21D;65641;44.714;37.756;2023-12-07T00:21:50;9.72;83.49
75380;HTU21D;65641;44.714;37.756;2023-12-07T00:22:53;9.75;83.45
75380;HTU21D;65641;44.714;37.756;2023-12-07T00:23:56;9.74;83.49
75380;HTU21D;65641;44.714;37.756;2023-12-07T00:24:59;9.75;83.42
75380;HTU21D;65641;44.714;37.756;2023-12-07T00:26:05;9.75;83.58
75380;HTU21D;65641;44.714;37.756;2023-12-07T00:27:08;9.76;83.50
75380;HTU21D;65641;44.714;37.756;2023-12-07T00:28:11;9.77;83.52
75380;HTU21D;65641;44.714;37.756;2023-12-07T00:29:14;9.78;83.45
75380;HTU21D;65641;44.714;37.756;2023-12-07T00:30:18;9.79;83.49
75380;HTU21D;65641;44.714;37.756;2023-12-07T00:31:21;9.81;83.43
75380;HTU21D;65641;44.714;37.756;2023-12-07T00:32:24;9.81;83.47
75380;HTU21D;65641;44.714;37.756;2023-12-07T00:33:30;9.82;83.40
75380;HTU21D;65641;44.714;37.756;2023-12-07T00:34:33;9.83;83.35
75380;HTU21D;65641;44.714;37.756;2023-12-07T00:35:36;9.84;83.41
75380;HTU21D;65641;44.714;37.756;2023-12-07T00:36:39;9.84;83.45
75380;HTU21D;65641;44.714;37.756;2023-12-07T00:37:43;9.86;83.42
75380;HTU21D;65641;44.714;37.756;2023-12-07T00:38:46;9.88;83.35
75380;HTU21D;65641;44.714;37.756;2023-12-07T00:39:50;9.86;83.32
75380;HTU21D;65641;44.714;37.756;2023-12-07T00:40:53;9.88;83.38
75380;HTU21D;65641;44.714;37.756;2023-12-07T00:41:56;9.89;83.32
75380;HTU21D;65641;44.714;37.756;2023-12-07T00:43:00;9.89;83.34
75380;HTU21D;65641;44.714;37.756;2023-12-07T00:44:03;9.90;83.22
75380;HTU21D;65641;44.714;37.756;2023-12-07T00:45:08;9.90;83.20
75380;HTU21D;65641;44.714;37.756;2023-12-07T00:46:11;9.91;83.20
75380;HTU21D;65641;44.714;37.756;2023-12-07T00:47:15;9.90;83.19
75380;HTU21D;65641;44.714;37.756;2023-12-07T00:48:27;9.90;83.20
75380;HTU21D;65641;44.714;37.756;2023-12-07T00:49:33;9.91;83.16
75380;HTU21D;65641;44.714;37.756;2023-12-07T00:50:45;9.91;83.21
75380;HTU21D;65641;44.714;37.756;2023-12-07T00:51:50;9.90;83.20
75380;HTU21D;65641;44.714;37.756;2023-12-07T00:52:53;9.89;83.23
75380;HTU21D;65641;44.714;37.756;2023-12-07T00:53:56;9.90;83.23
75380;HTU21D;65641;44.714;37.756;2023-12-07T00:54:59;9.89;83.21
75380;HTU21D;65641;44.714;37.756;2023-12-07T00:56:13;9.90;83.25
75380;HTU21D;65641;44.714;37.756;2023-12-07T00:57:17;9.88;83.16
75380;HTU21D;65641;44.714;37.756;2023-12-07T00:58:20;9.88;83.29
75380;HTU21D;65641;44.714;37.756;2023-12-07T00:59:23;9.85;83.15
75380;HTU21D;65641;44.714;37.756;2023-12-07T01:00:27;9.86;83.06
75380;HTU21D;65641;44.714;37.756;2023-12-07T01:01:30;9.86;83.20
75380;HTU21D;65641;44.714;37.756;2023-12-07T01:02:33;9.86;83.13
75380;HTU21D;65641;44.714;37.756;2023-12-07T01:03:36;9.86;83.13
75380;HTU21D;65641;44.714;37.756;2023-12-07T01:04:43;9.85;83.11
75380;HTU21D;65641;44.714;37.756;2023-12-07T01:05:47;9.84;82.91
75380;HTU21D;65641;44.714;37.756;2023-12-07T01:06:50;9.84;83.15
75380;HTU21D;65641;44.714;37.756;2023-12-07T01:07:53;9.82;83.16
75380;HTU21D;65641;44.714;37.756;2023-12-07T01:08:56;9.83;83.24
75380;HTU21D;65641;44.714;37.756;2023-12-07T01:09:59;9.82;83.20
75380;HTU21D;65641;44.714;37.756;2023-12-07T01:11:05;9.82;83.13
75380;HTU21D;65641;44.714;37.756;2023-12-07T01:12:08;9.80;83.26
75380;HTU21D;65641;44.714;37.756;2023-12-07T01:13:12;9.80;83.19
75380;HTU21D;65641;44.714;37.756;2023-12-07T01:14:15;9.79;83.29
75380;HTU21D;65641;44.714;37.756;2023-12-07T01:15:19;9.79;83.20
75380;HTU21D;65641;44.714;37.756;2023-12-07T01:16:22;9.78;83.13
75380;HTU21D;65641;44.714;37.756;2023-12-07T01:17:25;9.78;83.26
75380;HTU21D;65641;44.714;37.756;2023-12-07T01:18:28;9.76;83.35
75380;HTU21D;65641;44.714;37.756;2023-12-07T01:19:31;9.76;83.29
75380;HTU21D;65641;44.714;37.756;2023-12-07T01:20:34;9.76;83.22
75380;HTU21D;65641;44.714;37.756;2023-12-07T01:21:38;9.76;83.31
75380;HTU21D;65641;44.714;37.756;2023-12-07T01:22:41;9.74;83.34
75380;HTU21D;65641;44.714;37.756;2023-12-07T01:23:44;9.75;83.32
75380;HTU21D;65641;44.714;37.756;2023-12-07T01:24:48;9.72;83.20
75380;HTU21D;65641;44.714;37.756;2023-12-07T01:25:51;9.70;83.33
75380;HTU21D;65641;44.714;37.756;2023-12-07T01:26:55;9.70;83.42
75380;HTU21D;65641;44.714;37.756;2023-12-07T01:27:58;9.69;83.45
75380;HTU21D;65641;44.714;37.756;2023-12-07T01:29:01;9.69;83.45
75380;HTU21D;65641;44.714;37.756;2023-12-07T01:30:05;9.68;83.46
75380;HTU21D;65641;44.714;37.756;2023-12-07T01:31:09;9.67;83.37
75380;HTU21D;65641;44.714;37.756;2023-12-07T01:32:12;9.67;83.44
75380;HTU21D;65641;44.714;37.756;2023-12-07T01:33:15;9.66;83.52
75380;HTU21D;65641;44.714;37.756;2023-12-07T01:34:18;9.65;83.50
75380;HTU21D;65641;44.714;37.756;2023-12-07T01:35:21;9.65;83.43
75380;HTU21D;65641;44.714;37.756;2023-12-07T01:36:25;9.64;83.46
75380;HTU21D;65641;44.714;37.756;2023-12-07T01:37:28;9.64;83.57
75380;HTU21D;65641;44.714;37.756;2023-12-07T01:38:32;9.62;83.55
75380;HTU21D;65641;44.714;37.756;2023-12-07T01:39:36;9.62;83.65
75380;HTU21D;65641;44.714;37.756;2023-12-07T01:40:39;9.62;83.58
75380;HTU21D;65641;44.714;37.756;2023-12-07T01:41:44;9.61;83.60
75380;HTU21D;65641;44.714;37.756;2023-12-07T01:42:51;9.62;83.65
75380;HTU21D;65641;44.714;37.756;2023-12-07T01:43:55;9.60;83.54
75380;HTU21D;65641;44.714;37.756;2023-12-07T01:44:58;9.60;83.62
75380;HTU21D;65641;44.714;37.756;2023-12-07T01:46:01;9.60;83.67
75380;HTU21D;65641;44.714;37.756;2023-12-07T01:47:06;9.59;83.57
75380;HTU21D;65641;44.714;37.756;2023-12-07T01:48:10;9.57;83.59
75380;HTU21D;65641;44.714;37.756;2023-12-07T01:49:14;9.59;83.74
75380;HTU21D;65641;44.714;37.756;2023-12-07T01:50:17;9.57;83.72
75380;HTU21D;65641;44.714;37.756;2023-12-07T01:51:27;9.56;83.77
75380;HTU21D;65641;44.714;37.756;2023-12-07T01:52:30;9.55;83.82
75380;HTU21D;65641;44.714;37.756;2023-12-07T01:53:34;9.54;83.76
75380;HTU21D;65641;44.714;37.756;2023-12-07T01:54:38;9.55;83.77
75380;HTU21D;65641;44.714;37.756;2023-12-07T01:55:41;9.56;83.82
75380;HTU21D;65641;44.714;37.756;2023-12-07T01:56:45;9.55;83.84
75380;HTU21D;65641;44.714;37.756;2023-12-07T01:57:49;9.53;83.80
75380;HTU21D;65641;44.714;37.756;2023-12-07T01:58:52;9.53;83.87
75380;HTU21D;65641;44.714;37.756;2023-12-07T01:59:56;9.53;83.81
75380;HTU21D;65641;44.714;37.756;2023-12-07T02:00:59;9.53;83.73
75380;HTU21D;65641;44.714;37.756;2023-12-07T02:02:03;9.51;83.87
75380;HTU21D;65641;44.714;37.756;2023-12-07T02:03:06;9.52;83.84
75380;HTU21D;65641;44.714;37.756;2023-12-07T02:04:10;9.52;83.86
75380;HTU21D;65641;44.714;37.756;2023-12-07T02:05:15;9.52;83.88
75380;HTU21D;65641;44.714;37.756;2023-12-07T02:06:18;9.51;83.84
75380;HTU21D;65641;44.714;37.756;2023-12-07T02:07:23;9.50;83.76
75380;HTU21D;65641;44.714;37.756;2023-12-07T02:08:26;9.50;83.86
75380;HTU21D;65641;44.714;37.756;2023-12-07T02:09:29;9.50;83.79
75380;HTU21D;65641;44.714;37.756;2023-12-07T02:10:32;9.49;83.84
75380;HTU21D;65641;44.714;37.756;2023-12-07T02:11:35;9.49;83.87
75380;HTU21D;65641;44.714;37.756;2023-12-07T02:12:39;9.48;83.81
75380;HTU21D;65641;44.714;37.756;2023-12-07T02:13:42;9.47;83.73
75380;HTU21D;65641;44.714;37.756;2023-12-07T02:14:46;9.46;83.67
75380;HTU21D;65641;44.714;37.756;2023-12-07T02:15:49;9.45;83.55
75380;HTU21D;65641;44.714;37.756;2023-12-07T02:17:11;9.42;83.65
75380;HTU21D;65641;44.714;37.756;2023-12-07T02:22:35;9.37;83.77
75380;HTU21D;65641;44.714;37.756;2023-12-07T02:23:41;9.34;83.71
75380;HTU21D;65641;44.714;37.756;2023-12-07T02:26:33;9.30;83.85
75380;HTU21D;65641;44.714;37.756;2023-12-07T02:27:41;9.30;83.84
75380;HTU21D;65641;44.714;37.756;2023-12-07T02:28:45;9.27;83.90
75380;HTU21D;65641;44.714;37.756;2023-12-07T02:29:48;9.26;83.86
75380;HTU21D;65641;44.714;37.756;2023-12-07T02:30:51;9.25;83.98
75380;HTU21D;65641;44.714;37.756;2023-12-07T02:31:54;9.24;84.01
75380;HTU21D;65641;44.714;37.756;2023-12-07T02:32:57;9.23;83.90
75380;HTU21D;65641;44.714;37.756;2023-12-07T02:34:01;9.20;84.03
75380;HTU21D;65641;44.714;37.756;2023-12-07T02:35:05;9.20;84.07
75380;HTU21D;65641;44.714;37.756;2023-12-07T02:36:09;9.20;84.08
75380;HTU21D;65641;44.714;37.756;2023-12-07T02:37:12;9.19;84.14
75380;HTU21D;65641;44.714;37.756;2023-12-07T02:38:16;9.19;84.16
75380;HTU21D;65641;44.714;37.756;2023-12-07T02:39:20;9.19;84.26
75380;HTU21D;65641;44.714;37.756;2023-12-07T02:40:25;9.19;84.19
75380;HTU21D;65641;44.714;37.756;2023-12-07T02:41:31;9.19;84.24
75380;HTU21D;65641;44.714;37.756;2023-12-07T02:42:36;9.17;84.29
75380;HTU21D;65641;44.714;37.756;2023-12-07T02:43:39;9.18;84.38
75380;HTU21D;65641;44.714;37.756;2023-12-07T02:44:43;9.17;84.29
75380;HTU21D;65641;44.714;37.756;2023-12-07T02:45:46;9.18;84.10
75380;HTU21D;65641;44.714;37.756;2023-12-07T02:46:50;9.18;84.08
75380;HTU21D;65641;44.714;37.756;2023-12-07T02:47:54;9.18;84.18
75380;HTU21D;65641;44.714;37.756;2023-12-07T02:48:57;9.17;84.20
75380;HTU21D;65641;44.714;37.756;2023-12-07T02:50:02;9.16;84.19
75380;HTU21D;65641;44.714;37.756;2023-12-07T02:51:06;9.16;84.11
75380;HTU21D;65641;44.714;37.756;2023-12-07T02:52:09;9.16;84.34
75380;HTU21D;65641;44.714;37.756;2023-12-07T02:53:12;9.15;84.36
75380;HTU21D;65641;44.714;37.756;2023-12-07T02:54:21;9.16;84.29
75380;HTU21D;65641;44.714;37.756;2023-12-07T02:55:26;9.15;84.19
75380;HTU21D;65641;44.714;37.756;2023-12-07T02:56:29;9.14;84.27
75380;HTU21D;65641;44.714;37.756;2023-12-07T02:57:33;9.14;84.13
75380;HTU21D;65641;44.714;37.756;2023-12-07T02:58:38;9.12;84.11
75380;HTU21D;65641;44.714;37.756;2023-12-07T02:59:44;9.14;84.26
75380;HTU21D;65641;44.714;37.756;2023-12-07T03:00:51;9.12;84.30
75380;HTU21D;65641;44.714;37.756;2023-12-07T03:02:03;9.11;84.21
75380;HTU21D;65641;44.714;37.756;2023-12-07T03:03:14;9.12;84.31
75380;HTU21D;65641;44.714;37.756;2023-12-07T03:04:17;9.11;83.99
75380;HTU21D;65641;44.714;37.756;2023-12-07T03:05:20;9.12;83.97
75380;HTU21D;65641;44.714;37.756;2023-12-07T03:06:25;9.14;84.14
75380;HTU21D;65641;44.714;37.756;2023-12-07T03:07:29;9.11;84.24
75380;HTU21D;65641;44.714;37.756;2023-12-07T03:08:32;9.11;84.19
75380;HTU21D;65641;44.714;37.756;2023-12-07T03:09:35;9.12;84.12
75380;HTU21D;65641;44.714;37.756;2023-12-07T03:10:38;9.11;84.10
75380;HTU21D;65641;44.714;37.756;2023-12-07T03:11:41;9.12;83.85
75380;HTU21D;65641;44.714;37.756;2023-12-07T03:12:45;9.11;83.64
75380;HTU21D;65641;44.714;37.756;2023-12-07T03:13:48;9.11;83.71
75380;HTU21D;65641;44.714;37.756;2023-12-07T03:14:51;9.10;83.85
75380;HTU21D;65641;44.714;37.756;2023-12-07T03:15:54;9.09;83.68
75380;HTU21D;65641;44.714;37.756;2023-12-07T03:16:58;9.08;83.58
75380;HTU21D;65641;44.714;37.756;2023-12-07T03:18:01;9.07;83.71
75380;HTU21D;65641;44.714;37.756;2023-12-07T03:19:09;9.07;83.63
75380;HTU21D;65641;44.714;37.756;2023-12-07T03:20:13;9.05;83.71
75380;HTU21D;65641;44.714;37.756;2023-12-07T03:21:16;9.04;83.91
75380;HTU21D;65641;44.714;37.756;2023-12-07T03:22:19;9.04;83.74
75380;HTU21D;65641;44.714;37.756;2023-12-07T03:23:23;9.03;83.64
75380;HTU21D;65641;44.714;37.756;2023-12-07T03:24:26;9.02;83.73
75380;HTU21D;65641;44.714;37.756;2023-12-07T03:25:29;9.01;83.69
75380;HTU21D;65641;44.714;37.756;2023-12-07T03:26:33;9.01;83.73
75380;HTU21D;65641;44.714;37.756;2023-12-07T03:27:36;8.98;83.86
75380;HTU21D;65641;44.714;37.756;2023-12-07T03:28:39;8.98;83.68
75380;HTU21D;65641;44.714;37.756;2023-12-07T03:29:43;8.97;83.88
75380;HTU21D;65641;44.714;37.756;2023-12-07T03:30:46;8.96;83.90
75380;HTU21D;65641;44.714;37.756;2023-12-07T03:31:49;8.96;83.71
75380;HTU21D;65641;44.714;37.756;2023-12-07T03:32:52;8.94;83.65
75380;HTU21D;65641;44.714;37.756;2023-12-07T03:33:56;8.93;83.53
75380;HTU21D;65641;44.714;37.756;2023-12-07T03:34:59;8.93;83.70
75380;HTU21D;65641;44.714;37.756;2023-12-07T03:36:02;8.92;83.53
75380;HTU21D;65641;44.714;37.756;2023-12-07T03:37:05;8.90;83.75
75380;HTU21D;65641;44.714;37.756;2023-12-07T03:38:09;8.90;83.59
75380;HTU21D;65641;44.714;37.756;2023-12-07T03:39:13;8.89;83.65
75380;HTU21D;65641;44.714;37.756;2023-12-07T03:40:17;8.87;83.65
75380;HTU21D;65641;44.714;37.756;2023-12-07T03:41:20;8.86;83.54
75380;HTU21D;65641;44.714;37.756;2023-12-07T03:42:23;8.85;83.66
75380;HTU21D;65641;44.714;37.756;2023-12-07T03:43:46;8.83;83.61
75380;HTU21D;65641;44.714;37.756;2023-12-07T03:44:50;8.83;83.58
75380;HTU21D;65641;44.714;37.756;2023-12-07T03:45:53;8.80;83.64
75380;HTU21D;65641;44.714;37.756;2023-12-07T03:46:59;8.81;83.56
75380;HTU21D;65641;44.714;37.756;2023-12-07T03:48:05;8.81;83.67
75380;HTU21D;65641;44.714;37.756;2023-12-07T03:49:08;8.79;83.48
75380;HTU21D;65641;44.714;37.756;2023-12-07T03:50:14;8.79;83.54
75380;HTU21D;65641;44.714;37.756;2023-12-07T03:51:20;8.77;83.54
75380;HTU21D;65641;44.714;37.756;2023-12-07T03:52:24;8.76;83.54
75380;HTU21D;65641;44.714;37.756;2023-12-07T03:53:28;8.75;83.55
75380;HTU21D;65641;44.714;37.756;2023-12-07T03:54:33;8.76;83.76
75380;HTU21D;65641;44.714;37.756;2023-12-07T03:55:36;8.75;83.65
75380;HTU21D;65641;44.714;37.756;2023-12-07T03:56:39;8.73;83.71
75380;HTU21D;65641;44.714;37.756;2023-12-07T03:57:43;8.74;83.64
75380;HTU21D;65641;44.714;37.756;2023-12-07T03:58:46;8.73;83.69
75380;HTU21D;65641;44.714;37.756;2023-12-07T03:59:50;8.72;83.58
75380;HTU21D;65641;44.714;37.756;2023-12-07T04:00:53;8.73;83.58
75380;HTU21D;65641;44.714;37.756;2023-12-07T04:01:56;8.72;83.58
75380;HTU21D;65641;44.714;37.756;2023-12-07T04:02:59;8.71;83.44
75380;HTU21D;65641;44.714;37.756;2023-12-07T04:04:02;8.72;83.56
75380;HTU21D;65641;44.714;37.756;2023-12-07T04:05:09;8.68;83.60
75380;HTU21D;65641;44.714;37.756;2023-12-07T04:06:12;8.68;83.57
75380;HTU21D;65641;44.714;37.756;2023-12-07T04:07:15;8.70;83.55
75380;HTU21D;65641;44.714;37.756;2023-12-07T04:08:18;8.68;83.50
75380;HTU21D;65641;44.714;37.756;2023-12-07T04:09:21;8.68;83.40
75380;HTU21D;65641;44.714;37.756;2023-12-07T04:10:24;8.68;83.66
75380;HTU21D;65641;44.714;37.756;2023-12-07T04:11:27;8.66;83.58
75380;HTU21D;65641;44.714;37.756;2023-12-07T04:12:31;8.65;83.64
75380;HTU21D;65641;44.714;37.756;2023-12-07T04:13:34;8.66;83.45
75380;HTU21D;65641;44.714;37.756;2023-12-07T04:14:37;8.66;83.55
75380;HTU21D;65641;44.714;37.756;2023-12-07T04:15:40;8.65;83.71
75380;HTU21D;65641;44.714;37.756;2023-12-07T04:16:43;8.65;83.52
75380;HTU21D;65641;44.714;37.756;2023-12-07T04:17:46;8.65;83.45
75380;HTU21D;65641;44.714;37.756;2023-12-07T04:18:50;8.64;83.72
75380;HTU21D;65641;44.714;37.756;2023-12-07T04:19:53;8.64;83.65
75380;HTU21D;65641;44.714;37.756;2023-12-07T04:20:56;8.64;83.63
75380;HTU21D;65641;44.714;37.756;2023-12-07T04:21:59;8.64;83.68
75380;HTU21D;65641;44.714;37.756;2023-12-07T04:23:02;8.62;83.54
75380;HTU21D;65641;44.714;37.756;2023-12-07T04:24:05;8.63;83.68
75380;HTU21D;65641;44.714;37.756;2023-12-07T04:25:11;8.61;83.58
75380;HTU21D;65641;44.714;37.756;2023-12-07T04:26:14;8.61;83.53
75380;HTU21D;65641;44.714;37.756;2023-12-07T04:27:18;8.61;83.45
75380;HTU21D;65641;44.714;37.756;2023-12-07T04:28:21;8.61;83.78
75380;HTU21D;65641;44.714;37.756;2023-12-07T04:29:24;8.60;83.68
75380;HTU21D;65641;44.714;37.756;2023-12-07T04:30:28;8.59;83.65
75380;HTU21D;65641;44.714;37.756;2023-12-07T04:31:33;8.58;83.59
75380;HTU21D;65641;44.714;37.756;2023-12-07T04:32:38;8.57;83.65
75380;HTU21D;65641;44.714;37.756;2023-12-07T04:33:42;8.57;83.74
75380;HTU21D;65641;44.714;37.756;2023-12-07T04:34:48;8.57;83.71
75380;HTU21D;65641;44.714;37.756;2023-12-07T04:35:51;8.56;83.74
75380;HTU21D;65641;44.714;37.756;2023-12-07T04:36:54;8.55;83.76
75380;HTU21D;65641;44.714;37.756;2023-12-07T04:37:57;8.56;83.61
75380;HTU21D;65641;44.714;37.756;2023-12-07T04:39:00;8.56;83.68
75380;HTU21D;65641;44.714;37.756;2023-12-07T04:40:03;8.57;83.83
75380;HTU21D;65641;44.714;37.756;2023-12-07T04:41:08;8.56;83.82
75380;HTU21D;65641;44.714;37.756;2023-12-07T04:42:11;8.53;83.69
75380;HTU21D;65641;44.714;37.756;2023-12-07T04:43:14;8.55;83.55
75380;HTU21D;65641;44.714;37.756;2023-12-07T04:44:17;8.55;83.66
75380;HTU21D;65641;44.714;37.756;2023-12-07T04:45:22;8.56;83.78
75380;HTU21D;65641;44.714;37.756;2023-12-07T04:46:25;8.56;83.67
75380;HTU21D;65641;44.714;37.756;2023-12-07T04:47:28;8.56;83.53
75380;HTU21D;65641;44.714;37.756;2023-12-07T04:48:32;8.53;83.70
75380;HTU21D;65641;44.714;37.756;2023-12-07T04:49:35;8.53;83.63
75380;HTU21D;65641;44.714;37.756;2023-12-07T04:50:38;8.53;83.58
75380;HTU21D;65641;44.714;37.756;2023-12-07T04:51:42;8.52;83.64
75380;HTU21D;65641;44.714;37.756;2023-12-07T04:52:49;8.53;83.54
75380;HTU21D;65641;44.714;37.756;2023-12-07T04:53:52;8.53;83.62
75380;HTU21D;65641;44.714;37.756;2023-12-07T04:55:05;8.55;83.68
75380;HTU21D;65641;44.714;37.756;2023-12-07T04:56:11;8.55;83.68
75380;HTU21D;65641;44.714;37.756;2023-12-07T04:57:14;8.53;83.62
75380;HTU21D;65641;44.714;37.756;2023-12-07T04:58:18;8.52;83.55
75380;HTU21D;65641;44.714;37.756;2023-12-07T04:59:21;8.53;83.49
75380;HTU21D;65641;44.714;37.756;2023-12-07T05:00:24;8.52;83.73
75380;HTU21D;65641;44.714;37.756;2023-12-07T05:01:27;8.53;83.74
75380;HTU21D;65641;44.714;37.756;2023-12-07T05:02:30;8.53;83.57
75380;HTU21D;65641;44.714;37.756;2023-12-07T05:03:34;8.53;83.50
75380;HTU21D;65641;44.714;37.756;2023-12-07T05:04:37;8.55;83.55
75380;HTU21D;65641;44.714;37.756;2023-12-07T05:05:40;8.55;83.45
75380;HTU21D;65641;44.714;37.756;2023-12-07T05:06:44;8.55;83.39
75380;HTU21D;65641;44.714;37.756;2023-12-07T05:07:47;8.55;83.45
75380;HTU21D;65641;44.714;37.756;2023-12-07T05:08:50;8.55;83.31
75380;HTU21D;65641;44.714;37.756;2023-12-07T05:09:54;8.56;83.45
75380;HTU21D;65641;44.714;37.756;2023-12-07T05:10:57;8.56;83.29
75380;HTU21D;65641;44.714;37.756;2023-12-07T05:12:01;8.55;83.39
75380;HTU21D;65641;44.714;37.756;2023-12-07T05:13:05;8.53;83.42
75380;HTU21D;65641;44.714;37.756;2023-12-07T05:14:08;8.53;83.30
75380;HTU21D;65641;44.714;37.756;2023-12-07T05:15:11;8.56;83.43
75380;HTU21D;65641;44.714;37.756;2023-12-07T05:16:15;8.53;83.55
75380;HTU21D;65641;44.714;37.756;2023-12-07T05:17:18;8.53;83.32
75380;HTU21D;65641;44.714;37.756;2023-12-07T05:18:21;8.56;83.28
75380;HTU21D;65641;44.714;37.756;2023-12-07T05:19:25;8.56;83.47
75380;HTU21D;65641;44.714;37.756;2023-12-07T05:20:28;8.56;83.31
75380;HTU21D;65641;44.714;37.756;2023-12-07T05:21:32;8.56;83.36
75380;HTU21D;65641;44.714;37.756;2023-12-07T05:22:35;8.55;83.52
75380;HTU21D;65641;44.714;37.756;2023-12-07T05:23:38;8.56;83.42
75380;HTU21D;65641;44.714;37.756;2023-12-07T05:24:42;8.56;83.23
75380;HTU21D;65641;44.714;37.756;2023-12-07T05:25:45;8.57;83.45
75380;HTU21D;65641;44.714;37.756;2023-12-07T05:26:48;8.58;83.49
75380;HTU21D;65641;44.714;37.756;2023-12-07T05:27:51;8.58;83.18
75380;HTU21D;65641;44.714;37.756;2023-12-07T05:28:55;8.58;83.11
75380;HTU21D;65641;44.714;37.756;2023-12-07T05:29:58;8.58;83.27
75380;HTU21D;65641;44.714;37.756;2023-12-07T05:31:02;8.59;83.27
75380;HTU21D;65641;44.714;37.756;2023-12-07T05:32:05;8.60;83.13
75380;HTU21D;65641;44.714;37.756;2023-12-07T05:33:09;8.61;83.13
75380;HTU21D;65641;44.714;37.756;2023-12-07T05:34:12;8.62;82.87
75380;HTU21D;65641;44.714;37.756;2023-12-07T05:35:16;8.62;82.76
75380;HTU21D;65641;44.714;37.756;2023-12-07T05:36:19;8.64;83.03
75380;HTU21D;65641;44.714;37.756;2023-12-07T05:37:23;8.63;82.74
75380;HTU21D;65641;44.714;37.756;2023-12-07T05:38:26;8.63;82.72
75380;HTU21D;65641;44.714;37.756;2023-12-07T05:39:34;8.62;82.74
75380;HTU21D;65641;44.714;37.756;2023-12-07T05:40:37;8.64;82.91
75380;HTU21D;65641;44.714;37.756;2023-12-07T05:41:41;8.64;82.68
75380;HTU21D;65641;44.714;37.756;2023-12-07T05:42:47;8.63;82.81
75380;HTU21D;65641;44.714;37.756;2023-12-07T05:43:50;8.64;82.78
75380;HTU21D;65641;44.714;37.756;2023-12-07T05:44:54;8.64;82.81
75380;HTU21D;65641;44.714;37.756;2023-12-07T05:45:57;8.63;82.78
75380;HTU21D;65641;44.714;37.756;2023-12-07T05:47:00;8.65;82.84
75380;HTU21D;65641;44.714;37.756;2023-12-07T05:48:04;8.64;82.84
75380;HTU21D;65641;44.714;37.756;2023-12-07T05:49:07;8.64;82.97
75380;HTU21D;65641;44.714;37.756;2023-12-07T05:50:11;8.64;82.78
75380;HTU21D;65641;44.714;37.756;2023-12-07T05:51:17;8.65;82.78
75380;HTU21D;65641;44.714;37.756;2023-12-07T05:52:20;8.63;82.76
75380;HTU21D;65641;44.714;37.756;2023-12-07T05:53:24;8.66;82.88
75380;HTU21D;65641;44.714;37.756;2023-12-07T05:54:27;8.67;82.82
75380;HTU21D;65641;44.714;37.756;2023-12-07T05:55:30;8.67;82.79
75380;HTU21D;65641;44.714;37.756;2023-12-07T05:56:33;8.67;82.65
75380;HTU21D;65641;44.714;37.756;2023-12-07T05:57:37;8.68;82.72
75380;HTU21D;65641;44.714;37.756;2023-12-07T05:58:40;8.70;82.53
75380;HTU21D;65641;44.714;37.756;2023-12-07T05:59:43;8.71;82.58
75380;HTU21D;65641;44.714;37.756;2023-12-07T06:00:47;8.72;82.75
75380;HTU21D;65641;44.714;37.756;2023-12-07T06:01:53;8.73;82.69
75380;HTU21D;65641;44.714;37.756;2023-12-07T06:02:56;8.75;82.70
75380;HTU21D;65641;44.714;37.756;2023-12-07T06:03:59;8.76;82.55
75380;HTU21D;65641;44.714;37.756;2023-12-07T06:05:03;8.76;82.55
75380;HTU21D;65641;44.714;37.756;2023-12-07T06:06:07;8.77;82.46
75380;HTU21D;65641;44.714;37.756;2023-12-07T06:07:13;8.77;82.42
75380;HTU21D;65641;44.714;37.756;2023-12-07T06:08:17;8.79;82.47
75380;HTU21D;65641;44.714;37.756;2023-12-07T06:09:20;8.80;82.41
75380;HTU21D;65641;44.714;37.756;2023-12-07T06:10:23;8.81;82.25
75380;HTU21D;65641;44.714;37.756;2023-12-07T06:11:29;8.82;82.20
75380;HTU21D;65641;44.714;37.756;2023-12-07T06:12:32;8.83;82.23
75380;HTU21D;65641;44.714;37.756;2023-12-07T06:13:35;8.86;82.20
75380;HTU21D;65641;44.714;37.756;2023-12-07T06:14:39;8.85;82.21
75380;HTU21D;65641;44.714;37.756;2023-12-07T06:15:42;8.87;82.12
75380;HTU21D;65641;44.714;37.756;2023-12-07T06:16:45;8.88;82.14
75380;HTU21D;65641;44.714;37.756;2023-12-07T06:17:49;8.89;81.92
75380;HTU21D;65641;44.714;37.756;2023-12-07T06:18:52;8.93;82.09
75380;HTU21D;65641;44.714;37.756;2023-12-07T06:19:55;8.94;82.11
75380;HTU21D;65641;44.714;37.756;2023-12-07T06:20:59;8.97;82.04
75380;HTU21D;65641;44.714;37.756;2023-12-07T06:22:02;9.00;81.70
75380;HTU21D;65641;44.714;37.756;2023-12-07T06:23:05;9.01;81.59
75380;HTU21D;65641;44.714;37.756;2023-12-07T06:24:09;9.03;81.86
75380;HTU21D;65641;44.714;37.756;2023-12-07T06:25:13;9.02;81.68
75380;HTU21D;65641;44.714;37.756;2023-12-07T06:26:16;9.02;81.71
75380;HTU21D;65641;44.714;37.756;2023-12-07T06:27:19;9.04;81.61
75380;HTU21D;65641;44.714;37.756;2023-12-07T06:28:23;9.04;81.61
75380;HTU21D;65641;44.714;37.756;2023-12-07T06:29:26;9.06;81.51
75380;HTU21D;65641;44.714;37.756;2023-12-07T06:30:31;9.08;81.68
75380;HTU21D;65641;44.714;37.756;2023-12-07T06:31:34;9.09;81.50
75380;HTU21D;65641;44.714;37.756;2023-12-07T06:32:38;9.11;81.31
75380;HTU21D;65641;44.714;37.756;2023-12-07T06:33:41;9.12;81.36
75380;HTU21D;65641;44.714;37.756;2023-12-07T06:34:44;9.12;81.32
75380;HTU21D;65641;44.714;37.756;2023-12-07T06:35:48;9.16;81.32
75380;HTU21D;65641;44.714;37.756;2023-12-07T06:36:51;9.16;81.30
75380;HTU21D;65641;44.714;37.756;2023-12-07T06:37:54;9.17;81.13
75380;HTU21D;65641;44.714;37.756;2023-12-07T06:38:57;9.19;81.26
75380;HTU21D;65641;44.714;37.756;2023-12-07T06:40:00;9.19;81.01
75380;HTU21D;65641;44.714;37.756;2023-12-07T06:41:05;9.21;81.20
75380;HTU21D;65641;44.714;37.756;2023-12-07T06:42:08;9.23;81.09
75380;HTU21D;65641;44.714;37.756;2023-12-07T06:43:11;9.25;81.01